Overview Statistics Trail Chart Weather Telemetry Raw packets
 

This is the latest recevied weather packets stored in our database for station/object W2SBL-1. If no packets are shown the sender has not sent any weather packets the latest 10 day(s).

<< 23 24 25 26 27 28 29 >>
Time Temp. Humidity Pressure Rain* Wind** Luminosity Snow
1787847157 32.78° C 50% 1016.7 hPa - - - -
1787846257 33.33° C 49% 1016.9 hPa - - - -
1787845357 33.89° C 47% 1017.1 hPa - - - -
1787844457 33.89° C 47% 1017 hPa - - - -
1787843557 31.11° C 50% 1017.2 hPa - - - -
1787842657 28.89° C 53% 1017.3 hPa - - - -
1787841757 28.89° C 53% 1017.3 hPa - - - -
1787840857 28.89° C 52% 1017.4 hPa - - - -
1787839957 28.89° C 52% 1017.5 hPa - - - -
1787839056 28.33° C 53% 1017.5 hPa - - - -
1787838162 28.33° C 53% 1017.5 hPa - - - -
1787837256 28.33° C 53% 1017.5 hPa - - - -
1787836356 12.78° C 52% 992.8 hPa - - - -
1787835456 27.78° C 53% 1017.2 hPa - - - -
1787834556 27.78° C 53% 1017.3 hPa - - - -
1787833656 27.22° C 53% 1017.3 hPa - - - -
1787832756 26.67° C 53% 1017.2 hPa - - - -
1787831856 26.67° C 54% 1017.1 hPa - - - -
1787830956 26.11° C 54% 1017.3 hPa - - - -
1787830056 25.56° C 54% 1017.3 hPa - - - -
1787829156 25.56° C 54% 1017.3 hPa - - - -
1787828256 25.56° C 55% 1017.2 hPa - - - -
1787827356 25.56° C 54% 1017 hPa - - - -
1787826456 25.56° C 54% 1016.9 hPa - - - -
1787825556 25.56° C 54% 1016.9 hPa - - - -

* Rain since midnight (hover to see other rain measurements)
** Current wind speed in m/s (hover to see current wind gust speed)